<?xml version="1.0"?>
<gpx xmlns="http://www.topografix.com/GPX/1/1" xmlns:xsi="http://www.w3.org/2001/XMLSchema-instance" xmlns:wptx1="http://www.garmin.com/xmlschemas/WaypointExtension/v1" xmlns:gpxtrx="http://www.garmin.com/xmlschemas/GpxExtensions/v3" xmlns:gpxtpx="http://www.garmin.com/xmlschemas/TrackPointExtension/v1" xmlns:gpxx="http://www.garmin.com/xmlschemas/GpxExtensions/v3" xmlns:trp="http://www.garmin.com/xmlschemas/TripExtensions/v1" xmlns:adv="http://www.garmin.com/xmlschemas/AdventuresExtensions/v1" xmlns:prs="http://www.garmin.com/xmlschemas/PressureExtension/v1" xmlns:tmd="http://www.garmin.com/xmlschemas/TripMetaDataExtensions/v1" xmlns:vptm="http://www.garmin.com/xmlschemas/ViaPointTransportationModeExtensions/v1" xmlns:ctx="http://www.garmin.com/xmlschemas/CreationTimeExtension/v1" xmlns:gpxacc="http://www.garmin.com/xmlschemas/AccelerationExtension/v1" xmlns:gpxpx="http://www.garmin.com/xmlschemas/PowerExtension/v1" xmlns:vidx1="http://www.garmin.com/xmlschemas/VideoExtension/v1" creator="Garmin Desktop App" version="1.1" xsi:schemaLocation="http://www.topografix.com/GPX/1/1 http://www.topografix.com/GPX/1/1/gpx.xsd http://www.garmin.com/xmlschemas/WaypointExtension/v1 http://www8.garmin.com/xmlschemas/WaypointExtensionv1.xsd http://www.garmin.com/xmlschemas/TrackPointExtension/v1 http://www.garmin.com/xmlschemas/TrackPointExtensionv1.xsd http://www.garmin.com/xmlschemas/GpxExtensions/v3 http://www8.garmin.com/xmlschemas/GpxExtensionsv3.xsd http://www.garmin.com/xmlschemas/ActivityExtension/v1 http://www8.garmin.com/xmlschemas/ActivityExtensionv1.xsd http://www.garmin.com/xmlschemas/AdventuresExtensions/v1 http://www8.garmin.com/xmlschemas/AdventuresExtensionv1.xsd http://www.garmin.com/xmlschemas/PressureExtension/v1 http://www.garmin.com/xmlschemas/PressureExtensionv1.xsd http://www.garmin.com/xmlschemas/TripExtensions/v1 http://www.garmin.com/xmlschemas/TripExtensionsv1.xsd http://www.garmin.com/xmlschemas/TripMetaDataExtensions/v1 http://www.garmin.com/xmlschemas/TripMetaDataExtensionsv1.xsd http://www.garmin.com/xmlschemas/ViaPointTransportationModeExtensions/v1 http://www.garmin.com/xmlschemas/ViaPointTransportationModeExtensionsv1.xsd http://www.garmin.com/xmlschemas/CreationTimeExtension/v1 http://www.garmin.com/xmlschemas/CreationTimeExtensionsv1.xsd http://www.garmin.com/xmlschemas/AccelerationExtension/v1 http://www.garmin.com/xmlschemas/AccelerationExtensionv1.xsd http://www.garmin.com/xmlschemas/PowerExtension/v1 http://www.garmin.com/xmlschemas/PowerExtensionv1.xsd http://www.garmin.com/xmlschemas/VideoExtension/v1 http://www.garmin.com/xmlschemas/VideoExtensionv1.xsd">

  <metadata>
    <link href="http://www.garmin.com">
      <text>Garmin International</text>
    </link>
    <time>2018-02-27T03:24:54Z</time>
    <bounds maxlat="12.932375790551305" maxlon="99.683688422665" minlat="12.897002147510648" minlon="99.627898894250393"/>
  </metadata>

  <wpt lat="12.89985585026443" lon="99.680297942832112">
    <ele>115</ele>
    <name>Kaeng Krachan Resort</name>
    <cmt>26-JAN-13 12:45:30</cmt>
    <desc>26-JAN-13 12:45:30</desc>
    <sym>Lodging</sym>
    <type>user</type>
    <extensions>
      <gpxx:WaypointExtension>
        <gpxx:DisplayMode>SymbolOnly</gpxx:DisplayMode>
      </gpxx:WaypointExtension>
      <wptx1:WaypointExtension>
        <wptx1:DisplayMode>SymbolOnly</wptx1:DisplayMode>
      </wptx1:WaypointExtension>
    </extensions>
  </wpt>

  <wpt lat="12.919694390147924" lon="99.631610987707973">
    <ele>102</ele>
    <name>Water Sunday</name>
    <cmt>27-JAN-13 10:16:57</cmt>
    <desc>27-JAN-13 10:16:57</desc>
    <sym>Drinking Water</sym>
    <type>user</type>
    <extensions>
      <gpxx:WaypointExtension>
        <gpxx:DisplayMode>SymbolOnly</gpxx:DisplayMode>
      </gpxx:WaypointExtension>
      <wptx1:WaypointExtension>
        <wptx1:DisplayMode>SymbolOnly</wptx1:DisplayMode>
      </wptx1:WaypointExtension>
    </extensions>
  </wpt>

  <trk>
    <name>Sunday (Medium)</name>
    <extensions>
      <gpxx:TrackExtension>
        <gpxx:DisplayColor>Green</gpxx:DisplayColor>
      </gpxx:TrackExtension>
    </extensions>
    <trkseg>
      <trkpt lat="12.900289781391621" lon="99.681298406794667">
        <ele>106.8436279296875</ele>
        <time>2013-01-27T02:20:08Z</time>
      </trkpt>
      <trkpt lat="12.901042643934488" lon="99.681054661050439">
        <ele>102.037109375</ele>
        <time>2013-01-27T02:20:27Z</time>
      </trkpt>
      <trkpt lat="12.901442125439644" lon="99.681383650749922">
        <ele>101.07568359375</ele>
        <time>2013-01-27T02:20:39Z</time>
      </trkpt>
      <trkpt lat="12.902102200314403" lon="99.68162102624774">
        <ele>100.5950927734375</ele>
        <time>2013-01-27T02:20:52Z</time>
      </trkpt>
      <trkpt lat="12.90293762460351" lon="99.682530798017979">
        <ele>100.5950927734375</ele>
        <time>2013-01-27T02:21:11Z</time>
      </trkpt>
      <trkpt lat="12.903096294030547" lon="99.682950731366873">
        <ele>100.5950927734375</ele>
        <time>2013-01-27T02:21:19Z</time>
      </trkpt>
      <trkpt lat="12.90449196472764" lon="99.68296280130744">
        <ele>97.711181640625</ele>
        <time>2013-01-27T02:21:47Z</time>
      </trkpt>
      <trkpt lat="12.905362509191036" lon="99.68341676518321">
        <ele>95.7884521484375</ele>
        <time>2013-01-27T02:22:05Z</time>
      </trkpt>
      <trkpt lat="12.906204722821712" lon="99.683666210621595">
        <ele>96.269287109375</ele>
        <time>2013-01-27T02:22:20Z</time>
      </trkpt>
      <trkpt lat="12.906960351392627" lon="99.683449538424611">
        <ele>97.711181640625</ele>
        <time>2013-01-27T02:22:35Z</time>
      </trkpt>
      <trkpt lat="12.907621013000607" lon="99.682799689471722">
        <ele>101.07568359375</ele>
        <time>2013-01-27T02:22:54Z</time>
      </trkpt>
      <trkpt lat="12.907930640503764" lon="99.68188539147377">
        <ele>106.8436279296875</ele>
        <time>2013-01-27T02:23:28Z</time>
      </trkpt>
      <trkpt lat="12.908376725390553" lon="99.681518850848079">
        <ele>109.7276611328125</ele>
        <time>2013-01-27T02:23:46Z</time>
      </trkpt>
      <trkpt lat="12.908795652911067" lon="99.681358505040407">
        <ele>113.572998046875</ele>
        <time>2013-01-27T02:25:08Z</time>
      </trkpt>
      <trkpt lat="12.909965263679624" lon="99.683441240340471">
        <ele>98.6724853515625</ele>
        <time>2013-01-27T02:25:46Z</time>
      </trkpt>
      <trkpt lat="12.910653334110975" lon="99.682857440784574">
        <ele>97.711181640625</ele>
        <time>2013-01-27T02:26:08Z</time>
      </trkpt>
      <trkpt lat="12.911104364320636" lon="99.68195429071784">
        <ele>98.6724853515625</ele>
        <time>2013-01-27T02:26:30Z</time>
      </trkpt>
      <trkpt lat="12.913535116240382" lon="99.681209810078144">
        <ele>90.5013427734375</ele>
        <time>2013-01-27T02:27:21Z</time>
      </trkpt>
      <trkpt lat="12.914886949583888" lon="99.681537710130215">
        <ele>90.98193359375</ele>
        <time>2013-01-27T02:28:22Z</time>
      </trkpt>
      <trkpt lat="12.9159776866436" lon="99.681545170024037">
        <ele>87.6171875</ele>
        <time>2013-01-27T02:28:57Z</time>
      </trkpt>
      <trkpt lat="12.916138283908367" lon="99.681301340460777">
        <ele>86.656005859375</ele>
        <time>2013-01-27T02:29:06Z</time>
      </trkpt>
      <trkpt lat="12.916485210880637" lon="99.679203433915973">
        <ele>80.407470703125</ele>
        <time>2013-01-27T02:29:43Z</time>
      </trkpt>
      <trkpt lat="12.917273947969079" lon="99.679109137505293">
        <ele>81.849365234375</ele>
        <time>2013-01-27T02:30:06Z</time>
      </trkpt>
      <trkpt lat="12.917655408382416" lon="99.678917778655887">
        <ele>85.2139892578125</ele>
        <time>2013-01-27T02:30:22Z</time>
      </trkpt>
      <trkpt lat="12.917869566008449" lon="99.678809065371752">
        <ele>85.694580078125</ele>
        <time>2013-01-27T02:30:29Z</time>
      </trkpt>
      <trkpt lat="12.918551685288548" lon="99.678769335150719">
        <ele>88.0980224609375</ele>
        <time>2013-01-27T02:30:49Z</time>
      </trkpt>
      <trkpt lat="12.920706253498793" lon="99.678124515339732">
        <ele>91.9432373046875</ele>
        <time>2013-01-27T02:31:22Z</time>
      </trkpt>
      <trkpt lat="12.920380029827356" lon="99.678175980225205">
        <ele>94.3465576171875</ele>
        <time>2013-01-27T02:31:39Z</time>
      </trkpt>
      <trkpt lat="12.921133730560541" lon="99.677782701328397">
        <ele>93.3851318359375</ele>
        <time>2013-01-27T02:31:59Z</time>
      </trkpt>
      <trkpt lat="12.921730857342482" lon="99.676612000912428">
        <ele>100.114501953125</ele>
        <time>2013-01-27T02:32:44Z</time>
      </trkpt>
      <trkpt lat="12.921904027462006" lon="99.676008922979236">
        <ele>102.5177001953125</ele>
        <time>2013-01-27T02:33:17Z</time>
      </trkpt>
      <trkpt lat="12.922230418771505" lon="99.675098229199648">
        <ele>105.4017333984375</ele>
        <time>2013-01-27T02:33:58Z</time>
      </trkpt>
      <trkpt lat="12.923639165237546" lon="99.673496028408408">
        <ele>118.37939453125</ele>
        <time>2013-01-27T02:35:20Z</time>
      </trkpt>
      <trkpt lat="12.924858899787068" lon="99.672291213646531">
        <ele>124.6280517578125</ele>
        <time>2013-01-27T02:36:30Z</time>
      </trkpt>
      <trkpt lat="12.925223680213094" lon="99.671857031062245">
        <ele>120.7828369140625</ele>
        <time>2013-01-27T02:36:46Z</time>
      </trkpt>
      <trkpt lat="12.925359886139631" lon="99.671487472951412">
        <ele>117.8988037109375</ele>
        <time>2013-01-27T02:37:07Z</time>
      </trkpt>
      <trkpt lat="12.926353812217712" lon="99.671789892017841">
        <ele>107.3243408203125</ele>
        <time>2013-01-27T02:37:43Z</time>
      </trkpt>
      <trkpt lat="12.927349749952555" lon="99.671582188457251">
        <ele>107.3243408203125</ele>
        <time>2013-01-27T02:38:07Z</time>
      </trkpt>
      <trkpt lat="12.928854385390878" lon="99.671596437692642">
        <ele>115.014892578125</ele>
        <time>2013-01-27T02:39:09Z</time>
      </trkpt>
      <trkpt lat="12.928932337090373" lon="99.671585289761424">
        <ele>114.0535888671875</ele>
        <time>2013-01-27T02:39:14Z</time>
      </trkpt>
      <trkpt lat="12.929402142763138" lon="99.67103635892272">
        <ele>115.9761962890625</ele>
        <time>2013-01-27T02:39:40Z</time>
      </trkpt>
      <trkpt lat="12.929363334551454" lon="99.670710386708379">
        <ele>117.418212890625</ele>
        <time>2013-01-27T02:39:54Z</time>
      </trkpt>
      <trkpt lat="12.929392922669649" lon="99.670200012624264">
        <ele>116.456787109375</ele>
        <time>2013-01-27T02:40:05Z</time>
      </trkpt>
      <trkpt lat="12.93093896470964" lon="99.667642023414373">
        <ele>118.37939453125</ele>
        <time>2013-01-27T02:41:05Z</time>
      </trkpt>
      <trkpt lat="12.931219087913632" lon="99.666931740939617">
        <ele>117.8988037109375</ele>
        <time>2013-01-27T02:41:19Z</time>
      </trkpt>
      <trkpt lat="12.931101154536009" lon="99.666417427361012">
        <ele>120.7828369140625</ele>
        <time>2013-01-27T02:41:32Z</time>
      </trkpt>
      <trkpt lat="12.930677197873592" lon="99.665799681097269">
        <ele>121.744140625</ele>
        <time>2013-01-27T02:41:48Z</time>
      </trkpt>
      <trkpt lat="12.929002242162824" lon="99.664810867980123">
        <ele>120.7828369140625</ele>
        <time>2013-01-27T02:42:40Z</time>
      </trkpt>
      <trkpt lat="12.928740810602903" lon="99.6646065171808">
        <ele>125.58935546875</ele>
        <time>2013-01-27T02:42:59Z</time>
      </trkpt>
      <trkpt lat="12.928487258031964" lon="99.664354221895337">
        <ele>127.511962890625</ele>
        <time>2013-01-27T02:43:16Z</time>
      </trkpt>
      <trkpt lat="12.927151182666421" lon="99.662973135709763">
        <ele>131.3572998046875</ele>
        <time>2013-01-27T02:44:27Z</time>
      </trkpt>
      <trkpt lat="12.927626604214311" lon="99.663372868672013">
        <ele>129.915283203125</ele>
        <time>2013-01-27T02:45:07Z</time>
      </trkpt>
      <trkpt lat="12.927884263917804" lon="99.663377646356821">
        <ele>127.9925537109375</ele>
        <time>2013-01-27T02:45:16Z</time>
      </trkpt>
      <trkpt lat="12.928160279989243" lon="99.663014626130462">
        <ele>127.0313720703125</ele>
        <time>2013-01-27T02:45:29Z</time>
      </trkpt>
      <trkpt lat="12.928616087883711" lon="99.662837516516447">
        <ele>127.0313720703125</ele>
        <time>2013-01-27T02:45:56Z</time>
      </trkpt>
      <trkpt lat="12.92884323745966" lon="99.662528559565544">
        <ele>133.760498046875</ele>
        <time>2013-01-27T02:46:26Z</time>
      </trkpt>
      <trkpt lat="12.928918087854981" lon="99.66231138445437">
        <ele>133.2799072265625</ele>
        <time>2013-01-27T02:46:44Z</time>
      </trkpt>
      <trkpt lat="12.929913774132729" lon="99.661005819216371">
        <ele>128.473388671875</ele>
        <time>2013-01-27T02:48:30Z</time>
      </trkpt>
      <trkpt lat="12.930162213742733" lon="99.660869613289833">
        <ele>127.511962890625</ele>
        <time>2013-01-27T02:48:45Z</time>
      </trkpt>
      <trkpt lat="12.930664708837867" lon="99.660888304933906">
        <ele>128.473388671875</ele>
        <time>2013-01-27T02:49:07Z</time>
      </trkpt>
      <trkpt lat="12.931126551702619" lon="99.660833654925227">
        <ele>127.511962890625</ele>
        <time>2013-01-27T02:49:24Z</time>
      </trkpt>
      <trkpt lat="12.931514047086239" lon="99.660559734329581">
        <ele>130.39599609375</ele>
        <time>2013-01-27T02:49:41Z</time>
      </trkpt>
      <trkpt lat="12.932180659845471" lon="99.659519037231803">
        <ele>146.2578125</ele>
        <time>2013-01-27T02:50:56Z</time>
      </trkpt>
      <trkpt lat="12.932299515232444" lon="99.659138079732656">
        <ele>149.1416015625</ele>
        <time>2013-01-27T02:51:15Z</time>
      </trkpt>
      <trkpt lat="12.932375790551305" lon="99.658623347058892">
        <ele>144.8157958984375</ele>
        <time>2013-01-27T02:51:33Z</time>
      </trkpt>
      <trkpt lat="12.932374030351639" lon="99.658256219699979">
        <ele>140.970458984375</ele>
        <time>2013-01-27T02:51:46Z</time>
      </trkpt>
      <trkpt lat="12.93164991773665" lon="99.657838214188814">
        <ele>145.29638671875</ele>
        <time>2013-01-27T02:52:43Z</time>
      </trkpt>
      <trkpt lat="12.931303912773728" lon="99.657411407679319">
        <ele>148.180419921875</ele>
        <time>2013-01-27T02:53:09Z</time>
      </trkpt>
      <trkpt lat="12.93087299913168" lon="99.657100522890687">
        <ele>148.6610107421875</ele>
        <time>2013-01-27T02:53:36Z</time>
      </trkpt>
      <trkpt lat="12.930599832907319" lon="99.656671034172177">
        <ele>148.180419921875</ele>
        <time>2013-01-27T02:53:55Z</time>
      </trkpt>
      <trkpt lat="12.930391542613506" lon="99.656938165426254">
        <ele>152.0257568359375</ele>
        <time>2013-01-27T02:54:34Z</time>
      </trkpt>
      <trkpt lat="12.929896004498005" lon="99.657540740445256">
        <ele>152.0257568359375</ele>
        <time>2013-01-27T02:55:15Z</time>
      </trkpt>
      <trkpt lat="12.929666675627232" lon="99.657473266124725">
        <ele>154.428955078125</ele>
        <time>2013-01-27T02:55:30Z</time>
      </trkpt>
      <trkpt lat="12.929552430287004" lon="99.655995536595583">
        <ele>152.50634765625</ele>
        <time>2013-01-27T02:56:34Z</time>
      </trkpt>
      <trkpt lat="12.929330309852958" lon="99.655381729826331">
        <ele>153.9483642578125</ele>
        <time>2013-01-27T02:57:04Z</time>
      </trkpt>
      <trkpt lat="12.929652594029903" lon="99.65446013957262">
        <ele>161.638916015625</ele>
        <time>2013-01-27T02:57:34Z</time>
      </trkpt>
      <trkpt lat="12.930279560387135" lon="99.653881704434752">
        <ele>157.3128662109375</ele>
        <time>2013-01-27T02:58:07Z</time>
      </trkpt>
      <trkpt lat="12.930312668904662" lon="99.653512397781014">
        <ele>157.7935791015625</ele>
        <time>2013-01-27T02:58:22Z</time>
      </trkpt>
      <trkpt lat="12.930184006690979" lon="99.653334198519588">
        <ele>159.2354736328125</ele>
        <time>2013-01-27T02:58:30Z</time>
      </trkpt>
      <trkpt lat="12.929411781951785" lon="99.652932118624449">
        <ele>161.638916015625</ele>
        <time>2013-01-27T02:59:16Z</time>
      </trkpt>
      <trkpt lat="12.929204329848289" lon="99.652507491409779">
        <ele>157.7935791015625</ele>
        <time>2013-01-27T02:59:40Z</time>
      </trkpt>
      <trkpt lat="12.928656321018934" lon="99.651777930557728">
        <ele>140.970458984375</ele>
        <time>2013-01-27T03:00:38Z</time>
      </trkpt>
      <trkpt lat="12.927977805957198" lon="99.65120879933238">
        <ele>138.5672607421875</ele>
        <time>2013-01-27T03:00:53Z</time>
      </trkpt>
      <trkpt lat="12.927764570340514" lon="99.650990618392825">
        <ele>135.68310546875</ele>
        <time>2013-01-27T03:00:58Z</time>
      </trkpt>
      <trkpt lat="12.926909029483795" lon="99.650773610919714">
        <ele>126.0699462890625</ele>
        <time>2013-01-27T03:01:16Z</time>
      </trkpt>
      <trkpt lat="12.926436206325889" lon="99.650880983099341">
        <ele>119.8214111328125</ele>
        <time>2013-01-27T03:01:34Z</time>
      </trkpt>
      <trkpt lat="12.926299665123224" lon="99.650647547096014">
        <ele>119.3408203125</ele>
        <time>2013-01-27T03:01:41Z</time>
      </trkpt>
      <trkpt lat="12.926114592701197" lon="99.650262231007218">
        <ele>114.5341796875</ele>
        <time>2013-01-27T03:01:52Z</time>
      </trkpt>
      <trkpt lat="12.925787530839443" lon="99.650196516886353">
        <ele>112.611572265625</ele>
        <time>2013-01-27T03:02:01Z</time>
      </trkpt>
      <trkpt lat="12.925176406279206" lon="99.64947123080492">
        <ele>108.7662353515625</ele>
        <time>2013-01-27T03:02:23Z</time>
      </trkpt>
      <trkpt lat="12.924879435449839" lon="99.649485982954502">
        <ele>108.28564453125</ele>
        <time>2013-01-27T03:02:30Z</time>
      </trkpt>
      <trkpt lat="12.92457701638341" lon="99.649520767852664">
        <ele>104.4404296875</ele>
        <time>2013-01-27T03:02:38Z</time>
      </trkpt>
      <trkpt lat="12.924096481874585" lon="99.648606637492776">
        <ele>103.47900390625</ele>
        <time>2013-01-27T03:03:01Z</time>
      </trkpt>
      <trkpt lat="12.923672944307327" lon="99.645022032782435">
        <ele>101.07568359375</ele>
        <time>2013-01-27T03:04:27Z</time>
      </trkpt>
      <trkpt lat="12.921525919809937" lon="99.645261336117983">
        <ele>91.4625244140625</ele>
        <time>2013-01-27T03:05:16Z</time>
      </trkpt>
      <trkpt lat="12.91958031244576" lon="99.645047010853887">
        <ele>87.6171875</ele>
        <time>2013-01-27T03:06:10Z</time>
      </trkpt>
      <trkpt lat="12.919169180095196" lon="99.64507500641048">
        <ele>85.2139892578125</ele>
        <time>2013-01-27T03:06:22Z</time>
      </trkpt>
      <trkpt lat="12.919139675796032" lon="99.644205803051591">
        <ele>85.2139892578125</ele>
        <time>2013-01-27T03:06:44Z</time>
      </trkpt>
      <trkpt lat="12.919148560613394" lon="99.642788674682379">
        <ele>78.4847412109375</ele>
        <time>2013-01-27T03:07:16Z</time>
      </trkpt>
      <trkpt lat="12.920030755922198" lon="99.641739763319492">
        <ele>76.5621337890625</ele>
        <time>2013-01-27T03:07:44Z</time>
      </trkpt>
      <trkpt lat="12.920460077002645" lon="99.63992734439671">
        <ele>73.1976318359375</ele>
        <time>2013-01-27T03:08:25Z</time>
      </trkpt>
      <trkpt lat="12.920927703380585" lon="99.638906763866544">
        <ele>75.1202392578125</ele>
        <time>2013-01-27T03:08:50Z</time>
      </trkpt>
      <trkpt lat="12.921018227934837" lon="99.637668924406171">
        <ele>73.1976318359375</ele>
        <time>2013-01-27T03:09:16Z</time>
      </trkpt>
      <trkpt lat="12.921183686703444" lon="99.637182271108031">
        <ele>71.7554931640625</ele>
        <time>2013-01-27T03:09:31Z</time>
      </trkpt>
      <trkpt lat="12.920933067798615" lon="99.636573996394873">
        <ele>74.1588134765625</ele>
        <time>2013-01-27T03:09:45Z</time>
      </trkpt>
      <trkpt lat="12.919687600806355" lon="99.634225806221366">
        <ele>74.1588134765625</ele>
        <time>2013-01-27T03:10:45Z</time>
      </trkpt>
      <trkpt lat="12.92008800432086" lon="99.633926991373301">
        <ele>80.407470703125</ele>
        <time>2013-01-27T03:11:20Z</time>
      </trkpt>
      <trkpt lat="12.920220019295812" lon="99.633157113566995">
        <ele>96.269287109375</ele>
        <time>2013-01-27T03:12:22Z</time>
      </trkpt>
      <trkpt lat="12.919898657128215" lon="99.631835203617811">
        <ele>111.6502685546875</ele>
        <time>2013-01-27T03:14:07Z</time>
      </trkpt>
      <trkpt lat="12.919701933860779" lon="99.631613669916987">
        <ele>115.9761962890625</ele>
        <time>2013-01-27T03:23:59Z</time>
      </trkpt>
      <trkpt lat="12.914094524458051" lon="99.628168791532516">
        <ele>103.959716796875</ele>
        <time>2013-01-27T03:26:57Z</time>
      </trkpt>
      <trkpt lat="12.913007391616702" lon="99.6279710624367">
        <ele>107.3243408203125</ele>
        <time>2013-01-27T03:27:33Z</time>
      </trkpt>
      <trkpt lat="12.912726430222392" lon="99.627898894250393">
        <ele>106.363037109375</ele>
        <time>2013-01-27T03:27:39Z</time>
      </trkpt>
      <trkpt lat="12.910018572583795" lon="99.628877900540829">
        <ele>103.47900390625</ele>
        <time>2013-01-27T03:28:34Z</time>
      </trkpt>
      <trkpt lat="12.909303093329072" lon="99.628622671589255">
        <ele>104.4404296875</ele>
        <time>2013-01-27T03:28:51Z</time>
      </trkpt>
      <trkpt lat="12.909033698961139" lon="99.629099015146494">
        <ele>101.556396484375</ele>
        <time>2013-01-27T03:29:02Z</time>
      </trkpt>
      <trkpt lat="12.908000210300088" lon="99.629288362339139">
        <ele>97.711181640625</ele>
        <time>2013-01-27T03:29:21Z</time>
      </trkpt>
      <trkpt lat="12.907826118171215" lon="99.629158107563853">
        <ele>101.07568359375</ele>
        <time>2013-01-27T03:29:33Z</time>
      </trkpt>
      <trkpt lat="12.906839232891798" lon="99.629730088636279">
        <ele>102.998291015625</ele>
        <time>2013-01-27T03:30:14Z</time>
      </trkpt>
      <trkpt lat="12.906419215723872" lon="99.630158068612218">
        <ele>105.4017333984375</ele>
        <time>2013-01-27T03:30:31Z</time>
      </trkpt>
      <trkpt lat="12.906375881284475" lon="99.630530392751098">
        <ele>103.959716796875</ele>
        <time>2013-01-27T03:30:39Z</time>
      </trkpt>
      <trkpt lat="12.905874475836754" lon="99.631279231980443">
        <ele>104.4404296875</ele>
        <time>2013-01-27T03:30:58Z</time>
      </trkpt>
      <trkpt lat="12.905697114765644" lon="99.631482996046543">
        <ele>102.5177001953125</ele>
        <time>2013-01-27T03:31:03Z</time>
      </trkpt>
      <trkpt lat="12.903930377215147" lon="99.6323780156672">
        <ele>101.556396484375</ele>
        <time>2013-01-27T03:31:41Z</time>
      </trkpt>
      <trkpt lat="12.903619576245546" lon="99.632654199376702">
        <ele>102.037109375</ele>
        <time>2013-01-27T03:31:53Z</time>
      </trkpt>
      <trkpt lat="12.903561238199472" lon="99.632858717814088">
        <ele>100.114501953125</ele>
        <time>2013-01-27T03:31:59Z</time>
      </trkpt>
      <trkpt lat="12.903774725273252" lon="99.633013950660825">
        <ele>94.3465576171875</ele>
        <time>2013-01-27T03:32:05Z</time>
      </trkpt>
      <trkpt lat="12.905245833098888" lon="99.63253584690392">
        <ele>82.810791015625</ele>
        <time>2013-01-27T03:32:21Z</time>
      </trkpt>
      <trkpt lat="12.905974891036749" lon="99.632831895723939">
        <ele>80.88818359375</ele>
        <time>2013-01-27T03:32:31Z</time>
      </trkpt>
      <trkpt lat="12.906198017299175" lon="99.633770752698183">
        <ele>77.5234375</ele>
        <time>2013-01-27T03:32:44Z</time>
      </trkpt>
      <trkpt lat="12.906631026417017" lon="99.634525962173939">
        <ele>77.0428466796875</ele>
        <time>2013-01-27T03:32:57Z</time>
      </trkpt>
      <trkpt lat="12.907283389940858" lon="99.635309921577573">
        <ele>75.600830078125</ele>
        <time>2013-01-27T03:33:12Z</time>
      </trkpt>
      <trkpt lat="12.907480113208294" lon="99.635585602372885">
        <ele>74.6395263671875</ele>
        <time>2013-01-27T03:33:20Z</time>
      </trkpt>
      <trkpt lat="12.907463181763887" lon="99.635676965117455">
        <ele>72.7169189453125</ele>
        <time>2013-01-27T03:33:27Z</time>
      </trkpt>
      <trkpt lat="12.905554454773664" lon="99.636446088552475">
        <ele>72.2362060546875</ele>
        <time>2013-01-27T03:34:23Z</time>
      </trkpt>
      <trkpt lat="12.904058871790767" lon="99.638657150790095">
        <ele>79.9266357421875</ele>
        <time>2013-01-27T03:35:54Z</time>
      </trkpt>
      <trkpt lat="12.903384966775775" lon="99.638991672545671">
        <ele>75.1202392578125</ele>
        <time>2013-01-27T03:36:18Z</time>
      </trkpt>
      <trkpt lat="12.903418662026525" lon="99.639719305559993">
        <ele>69.352294921875</ele>
        <time>2013-01-27T03:36:34Z</time>
      </trkpt>
      <trkpt lat="12.903205677866936" lon="99.639983167871833">
        <ele>67.9102783203125</ele>
        <time>2013-01-27T03:36:42Z</time>
      </trkpt>
      <trkpt lat="12.903416063636541" lon="99.640940548852086">
        <ele>64.545654296875</ele>
        <time>2013-01-27T03:36:59Z</time>
      </trkpt>
      <trkpt lat="12.903386056423187" lon="99.64120902121067">
        <ele>63.5843505859375</ele>
        <time>2013-01-27T03:37:03Z</time>
      </trkpt>
      <trkpt lat="12.903177682310343" lon="99.641468357294798">
        <ele>63.5843505859375</ele>
        <time>2013-01-27T03:37:11Z</time>
      </trkpt>
      <trkpt lat="12.901488728821278" lon="99.642271008342505">
        <ele>62.142333984375</ele>
        <time>2013-01-27T03:37:59Z</time>
      </trkpt>
      <trkpt lat="12.901065442711115" lon="99.642993696033955">
        <ele>59.7391357421875</ele>
        <time>2013-01-27T03:38:15Z</time>
      </trkpt>
      <trkpt lat="12.899869848042727" lon="99.643662571907043">
        <ele>58.297119140625</ele>
        <time>2013-01-27T03:38:47Z</time>
      </trkpt>
      <trkpt lat="12.898804256692529" lon="99.644726403057575">
        <ele>58.7777099609375</ele>
        <time>2013-01-27T03:39:24Z</time>
      </trkpt>
      <trkpt lat="12.898382646963" lon="99.64523334056139">
        <ele>58.297119140625</ele>
        <time>2013-01-27T03:39:38Z</time>
      </trkpt>
      <trkpt lat="12.898165890946984" lon="99.645686382427812">
        <ele>58.297119140625</ele>
        <time>2013-01-27T03:39:52Z</time>
      </trkpt>
      <trkpt lat="12.898544752970338" lon="99.646086869761348">
        <ele>57.3358154296875</ele>
        <time>2013-01-27T03:40:06Z</time>
      </trkpt>
      <trkpt lat="12.898563696071506" lon="99.646289376541972">
        <ele>57.3358154296875</ele>
        <time>2013-01-27T03:40:12Z</time>
      </trkpt>
      <trkpt lat="12.898324225097895" lon="99.646878037601709">
        <ele>60.2197265625</ele>
        <time>2013-01-27T03:40:29Z</time>
      </trkpt>
      <trkpt lat="12.897847462445498" lon="99.647319093346596">
        <ele>60.2197265625</ele>
        <time>2013-01-27T03:40:45Z</time>
      </trkpt>
      <trkpt lat="12.89727296680212" lon="99.648657012730837">
        <ele>62.6229248046875</ele>
        <time>2013-01-27T03:41:26Z</time>
      </trkpt>
      <trkpt lat="12.897002147510648" lon="99.649075604975224">
        <ele>59.7391357421875</ele>
        <time>2013-01-27T03:41:43Z</time>
      </trkpt>
      <trkpt lat="12.897023605182767" lon="99.649402247741818">
        <ele>54.4517822265625</ele>
        <time>2013-01-27T03:41:57Z</time>
      </trkpt>
      <trkpt lat="12.897383105009794" lon="99.649526551365852">
        <ele>54.4517822265625</ele>
        <time>2013-01-27T03:42:09Z</time>
      </trkpt>
      <trkpt lat="12.897600950673223" lon="99.649547757580876">
        <ele>52.5291748046875</ele>
        <time>2013-01-27T03:42:18Z</time>
      </trkpt>
      <trkpt lat="12.89794335141778" lon="99.64905490167439">
        <ele>51.56787109375</ele>
        <time>2013-01-27T03:42:30Z</time>
      </trkpt>
      <trkpt lat="12.898640306666493" lon="99.648628598079085">
        <ele>49.645263671875</ele>
        <time>2013-01-27T03:42:47Z</time>
      </trkpt>
      <trkpt lat="12.900069253519177" lon="99.648127360269427">
        <ele>52.048583984375</ele>
        <time>2013-01-27T03:43:20Z</time>
      </trkpt>
      <trkpt lat="12.900678534060717" lon="99.648216627538204">
        <ele>56.8551025390625</ele>
        <time>2013-01-27T03:43:55Z</time>
      </trkpt>
      <trkpt lat="12.901777233928442" lon="99.648519800975919">
        <ele>58.7777099609375</ele>
        <time>2013-01-27T03:44:29Z</time>
      </trkpt>
      <trkpt lat="12.902106139808893" lon="99.648700095713139">
        <ele>56.8551025390625</ele>
        <time>2013-01-27T03:44:42Z</time>
      </trkpt>
      <trkpt lat="12.902208818122745" lon="99.649714892730117">
        <ele>56.37451171875</ele>
        <time>2013-01-27T03:45:12Z</time>
      </trkpt>
      <trkpt lat="12.901905728504062" lon="99.649955620989203">
        <ele>54.932373046875</ele>
        <time>2013-01-27T03:45:23Z</time>
      </trkpt>
      <trkpt lat="12.901411447674036" lon="99.64992611669004">
        <ele>55.4130859375</ele>
        <time>2013-01-27T03:45:38Z</time>
      </trkpt>
      <trkpt lat="12.900949856266379" lon="99.649703996255994">
        <ele>53.490478515625</ele>
        <time>2013-01-27T03:45:52Z</time>
      </trkpt>
      <trkpt lat="12.900085346773267" lon="99.650404723361135">
        <ele>55.4130859375</ele>
        <time>2013-01-27T03:46:29Z</time>
      </trkpt>
      <trkpt lat="12.899704305455089" lon="99.652001727372408">
        <ele>57.8165283203125</ele>
        <time>2013-01-27T03:47:36Z</time>
      </trkpt>
      <trkpt lat="12.899012295529246" lon="99.652593489736319">
        <ele>66.46826171875</ele>
        <time>2013-01-27T03:48:33Z</time>
      </trkpt>
      <trkpt lat="12.898295223712921" lon="99.653254989534616">
        <ele>62.6229248046875</ele>
        <time>2013-01-27T03:49:03Z</time>
      </trkpt>
      <trkpt lat="12.898598145693541" lon="99.653789084404707">
        <ele>69.352294921875</ele>
        <time>2013-01-27T03:49:45Z</time>
      </trkpt>
      <trkpt lat="12.89887323975563" lon="99.653920261189342">
        <ele>72.2362060546875</ele>
        <time>2013-01-27T03:50:02Z</time>
      </trkpt>
      <trkpt lat="12.89927632547915" lon="99.653803920373321">
        <ele>72.7169189453125</ele>
        <time>2013-01-27T03:50:19Z</time>
      </trkpt>
      <trkpt lat="12.89962325245142" lon="99.653533855453134">
        <ele>72.7169189453125</ele>
        <time>2013-01-27T03:50:33Z</time>
      </trkpt>
      <trkpt lat="12.900225995108485" lon="99.653789335861802">
        <ele>64.545654296875</ele>
        <time>2013-01-27T03:51:00Z</time>
      </trkpt>
      <trkpt lat="12.899943860247731" lon="99.654640601947904">
        <ele>61.6617431640625</ele>
        <time>2013-01-27T03:51:32Z</time>
      </trkpt>
      <trkpt lat="12.899843696504831" lon="99.65605353936553">
        <ele>60.7003173828125</ele>
        <time>2013-01-27T03:52:05Z</time>
      </trkpt>
      <trkpt lat="12.899801451712847" lon="99.656316144391894">
        <ele>60.2197265625</ele>
        <time>2013-01-27T03:52:10Z</time>
      </trkpt>
      <trkpt lat="12.899023024365306" lon="99.658124120905995">
        <ele>64.0650634765625</ele>
        <time>2013-01-27T03:53:05Z</time>
      </trkpt>
      <trkpt lat="12.898770142346621" lon="99.658743543550372">
        <ele>63.1036376953125</ele>
        <time>2013-01-27T03:53:22Z</time>
      </trkpt>
      <trkpt lat="12.898748097941279" lon="99.659753646701574">
        <ele>58.7777099609375</ele>
        <time>2013-01-27T03:53:50Z</time>
      </trkpt>
      <trkpt lat="12.898986311629415" lon="99.659486180171371">
        <ele>59.2584228515625</ele>
        <time>2013-01-27T03:54:03Z</time>
      </trkpt>
      <trkpt lat="12.899761218577623" lon="99.659701427444816">
        <ele>63.5843505859375</ele>
        <time>2013-01-27T03:54:40Z</time>
      </trkpt>
      <trkpt lat="12.90307005867362" lon="99.660730473697186">
        <ele>74.6395263671875</ele>
        <time>2013-01-27T03:56:39Z</time>
      </trkpt>
      <trkpt lat="12.904099188745022" lon="99.660071488469839">
        <ele>80.88818359375</ele>
        <time>2013-01-27T03:57:41Z</time>
      </trkpt>
      <trkpt lat="12.905183052644134" lon="99.65935567393899">
        <ele>78.0040283203125</ele>
        <time>2013-01-27T03:58:22Z</time>
      </trkpt>
      <trkpt lat="12.905723853036761" lon="99.659231621772051">
        <ele>74.6395263671875</ele>
        <time>2013-01-27T03:58:38Z</time>
      </trkpt>
      <trkpt lat="12.905937004834414" lon="99.658692413941026">
        <ele>71.7554931640625</ele>
        <time>2013-01-27T03:58:55Z</time>
      </trkpt>
      <trkpt lat="12.906666398048401" lon="99.658620832487941">
        <ele>70.3134765625</ele>
        <time>2013-01-27T03:59:47Z</time>
      </trkpt>
      <trkpt lat="12.906828839331865" lon="99.658673806115985">
        <ele>74.1588134765625</ele>
        <time>2013-01-27T04:00:18Z</time>
      </trkpt>
      <trkpt lat="12.906792713329196" lon="99.658880168572068">
        <ele>73.67822265625</ele>
        <time>2013-01-27T04:00:44Z</time>
      </trkpt>
      <trkpt lat="12.907177777960896" lon="99.659530771896243">
        <ele>75.600830078125</ele>
        <time>2013-01-27T04:01:21Z</time>
      </trkpt>
      <trkpt lat="12.907415069639683" lon="99.660225883126259">
        <ele>76.5621337890625</ele>
        <time>2013-01-27T04:01:49Z</time>
      </trkpt>
      <trkpt lat="12.907692594453692" lon="99.660545820370317">
        <ele>80.407470703125</ele>
        <time>2013-01-27T04:02:11Z</time>
      </trkpt>
      <trkpt lat="12.907982189208269" lon="99.66097011230886">
        <ele>80.88818359375</ele>
        <time>2013-01-27T04:02:38Z</time>
      </trkpt>
      <trkpt lat="12.909600734710693" lon="99.660402154549956">
        <ele>82.810791015625</ele>
        <time>2013-01-27T04:03:29Z</time>
      </trkpt>
      <trkpt lat="12.910873107612133" lon="99.659984987229109">
        <ele>71.7554931640625</ele>
        <time>2013-01-27T04:04:09Z</time>
      </trkpt>
      <trkpt lat="12.911295471712947" lon="99.660701220855117">
        <ele>68.390869140625</ele>
        <time>2013-01-27T04:04:31Z</time>
      </trkpt>
      <trkpt lat="12.91203198954463" lon="99.66303801164031">
        <ele>66.948974609375</ele>
        <time>2013-01-27T04:05:12Z</time>
      </trkpt>
      <trkpt lat="12.911959486082196" lon="99.664412811398506">
        <ele>66.948974609375</ele>
        <time>2013-01-27T04:05:39Z</time>
      </trkpt>
      <trkpt lat="12.911321707069874" lon="99.666411560028791">
        <ele>69.8328857421875</ele>
        <time>2013-01-27T04:06:23Z</time>
      </trkpt>
      <trkpt lat="12.91108843870461" lon="99.667689045891166">
        <ele>72.2362060546875</ele>
        <time>2013-01-27T04:06:50Z</time>
      </trkpt>
      <trkpt lat="12.911140825599432" lon="99.668404944241047">
        <ele>74.6395263671875</ele>
        <time>2013-01-27T04:07:05Z</time>
      </trkpt>
      <trkpt lat="12.91164549998939" lon="99.669942017644644">
        <ele>77.0428466796875</ele>
        <time>2013-01-27T04:07:39Z</time>
      </trkpt>
      <trkpt lat="12.911305697634816" lon="99.67115462757647">
        <ele>79.9266357421875</ele>
        <time>2013-01-27T04:08:18Z</time>
      </trkpt>
      <trkpt lat="12.910974947735667" lon="99.671610854566097">
        <ele>81.3687744140625</ele>
        <time>2013-01-27T04:08:37Z</time>
      </trkpt>
      <trkpt lat="12.91050111874938" lon="99.672004301100969">
        <ele>82.810791015625</ele>
        <time>2013-01-27T04:08:57Z</time>
      </trkpt>
      <trkpt lat="12.909900806844234" lon="99.672419121488929">
        <ele>82.330078125</ele>
        <time>2013-01-27T04:09:15Z</time>
      </trkpt>
      <trkpt lat="12.909482549875975" lon="99.673119848594069">
        <ele>80.88818359375</ele>
        <time>2013-01-27T04:09:30Z</time>
      </trkpt>
      <trkpt lat="12.908089645206928" lon="99.677488328889012">
        <ele>93.3851318359375</ele>
        <time>2013-01-27T04:11:34Z</time>
      </trkpt>
      <trkpt lat="12.90795779787004" lon="99.678900428116322">
        <ele>99.153076171875</ele>
        <time>2013-01-27T04:12:19Z</time>
      </trkpt>
      <trkpt lat="12.908390890806913" lon="99.68025385402143">
        <ele>108.28564453125</ele>
        <time>2013-01-27T04:13:20Z</time>
      </trkpt>
      <trkpt lat="12.908863127231598" lon="99.681196566671133">
        <ele>112.1309814453125</ele>
        <time>2013-01-27T04:13:59Z</time>
      </trkpt>
      <trkpt lat="12.9087093193084" lon="99.681428242474794">
        <ele>112.1309814453125</ele>
        <time>2013-01-27T04:14:07Z</time>
      </trkpt>
      <trkpt lat="12.908020745962858" lon="99.68181062489748">
        <ele>112.1309814453125</ele>
        <time>2013-01-27T04:14:25Z</time>
      </trkpt>
      <trkpt lat="12.907655881717801" lon="99.68264814466238">
        <ele>107.3243408203125</ele>
        <time>2013-01-27T04:14:39Z</time>
      </trkpt>
      <trkpt lat="12.907061018049717" lon="99.683425482362509">
        <ele>103.959716796875</ele>
        <time>2013-01-27T04:14:51Z</time>
      </trkpt>
      <trkpt lat="12.905874475836754" lon="99.683688422665">
        <ele>101.556396484375</ele>
        <time>2013-01-27T04:15:11Z</time>
      </trkpt>
      <trkpt lat="12.904137326404452" lon="99.682869762182236">
        <ele>102.5177001953125</ele>
        <time>2013-01-27T04:15:49Z</time>
      </trkpt>
      <trkpt lat="12.903186231851578" lon="99.682959951460361">
        <ele>101.07568359375</ele>
        <time>2013-01-27T04:16:07Z</time>
      </trkpt>
      <trkpt lat="12.902416354045272" lon="99.681954542174935">
        <ele>102.037109375</ele>
        <time>2013-01-27T04:16:37Z</time>
      </trkpt>
      <trkpt lat="12.901850156486034" lon="99.681464536115527">
        <ele>102.5177001953125</ele>
        <time>2013-01-27T04:16:56Z</time>
      </trkpt>
      <trkpt lat="12.901258561760187" lon="99.681276949122548">
        <ele>104.9210205078125</ele>
        <time>2013-01-27T04:17:13Z</time>
      </trkpt>
      <trkpt lat="12.90100852958858" lon="99.681131606921554">
        <ele>104.9210205078125</ele>
        <time>2013-01-27T04:17:21Z</time>
      </trkpt>
      <trkpt lat="12.90038650855422" lon="99.681357415392995">
        <ele>102.5177001953125</ele>
        <time>2013-01-27T04:17:36Z</time>
      </trkpt>
      <trkpt lat="12.900006556883454" lon="99.680665489286184">
        <ele>103.47900390625</ele>
        <time>2013-01-27T04:18:00Z</time>
      </trkpt>
      <trkpt lat="12.899620989337564" lon="99.680685186758637">
        <ele>102.998291015625</ele>
        <time>2013-01-27T04:18:12Z</time>
      </trkpt>
      <trkpt lat="12.899252437055111" lon="99.680365920066833">
        <ele>105.8824462890625</ele>
        <time>2013-01-27T04:18:37Z</time>
      </trkpt>
      <trkpt lat="12.899253023788333" lon="99.680379079654813">
        <ele>103.959716796875</ele>
        <time>2013-01-27T04:18:45Z</time>
      </trkpt>
    </trkseg>
  </trk>

</gpx>
